sensor_id;sensor_type;location;lat;lon;timestamp;pressure;altitude;pressure_sealevel;temperature;humidity
46127;BME280;31859;55.030;-1.550;2022-10-18T00:00:19;69454.71;;;20.77;95.59
46127;BME280;31859;55.030;-1.550;2022-10-18T00:02:46;69454.71;;;20.77;95.59
46127;BME280;31859;55.030;-1.550;2022-10-18T00:05:13;69454.71;;;20.55;95.59
46127;BME280;31859;55.030;-1.550;2022-10-18T00:07:40;69454.71;;;20.55;95.59
46127;BME280;31859;55.030;-1.550;2022-10-18T00:10:08;69454.71;;;20.55;95.59
46127;BME280;31859;55.030;-1.550;2022-10-18T00:12:36;69454.71;;;20.55;95.59
46127;BME280;31859;55.030;-1.550;2022-10-18T00:15:06;69454.71;;;20.55;95.59
46127;BME280;31859;55.030;-1.550;2022-10-18T00:17:34;69454.71;;;20.99;95.59
46127;BME280;31859;55.030;-1.550;2022-10-18T00:20:01;69454.71;;;20.99;95.59
46127;BME280;31859;55.030;-1.550;2022-10-18T00:22:28;69454.71;;;21.26;95.59
46127;BME280;31859;55.030;-1.550;2022-10-18T00:24:55;69454.71;;;20.77;95.59
46127;BME280;31859;55.030;-1.550;2022-10-18T00:27:22;69454.71;;;20.99;95.59
46127;BME280;31859;55.030;-1.550;2022-10-18T00:29:51;69454.71;;;20.99;95.59
46127;BME280;31859;55.030;-1.550;2022-10-18T00:32:18;69454.71;;;20.77;95.59
46127;BME280;31859;55.030;-1.550;2022-10-18T00:34:45;69454.71;;;20.99;95.59
46127;BME280;31859;55.030;-1.550;2022-10-18T00:37:13;69454.71;;;20.77;95.59
46127;BME280;31859;55.030;-1.550;2022-10-18T00:39:41;69454.71;;;20.99;95.59
46127;BME280;31859;55.030;-1.550;2022-10-18T00:42:10;69454.71;;;20.77;95.59
46127;BME280;31859;55.030;-1.550;2022-10-18T00:45:32;69454.71;;;20.55;95.59
46127;BME280;31859;55.030;-1.550;2022-10-18T00:48:01;69454.71;;;20.55;95.59
46127;BME280;31859;55.030;-1.550;2022-10-18T00:50:32;69454.71;;;20.77;95.59
46127;BME280;31859;55.030;-1.550;2022-10-18T00:53:02;69454.71;;;20.28;95.59
46127;BME280;31859;55.030;-1.550;2022-10-18T00:55:31;69454.71;;;20.06;95.59
46127;BME280;31859;55.030;-1.550;2022-10-18T00:58:00;69454.71;;;20.28;95.59
46127;BME280;31859;55.030;-1.550;2022-10-18T01:00:27;69454.71;;;20.28;95.59
46127;BME280;31859;55.030;-1.550;2022-10-18T01:02:54;69454.71;;;20.06;95.59
46127;BME280;31859;55.030;-1.550;2022-10-18T01:05:22;69454.71;;;20.55;95.59
46127;BME280;31859;55.030;-1.550;2022-10-18T01:08:03;69454.71;;;20.55;95.59
46127;BME280;31859;55.030;-1.550;2022-10-18T01:10:41;69454.71;;;20.77;95.59
46127;BME280;31859;55.030;-1.550;2022-10-18T01:13:25;69454.71;;;20.77;95.59
46127;BME280;31859;55.030;-1.550;2022-10-18T01:15:59;69454.71;;;20.77;95.59
46127;BME280;31859;55.030;-1.550;2022-10-18T01:18:32;69454.71;;;20.99;95.59
46127;BME280;31859;55.030;-1.550;2022-10-18T01:21:11;69454.71;;;20.99;95.59
46127;BME280;31859;55.030;-1.550;2022-10-18T01:24:59;69454.71;;;21.48;95.59
46127;BME280;31859;55.030;-1.550;2022-10-18T01:27:38;69454.71;;;20.99;95.59
46127;BME280;31859;55.030;-1.550;2022-10-18T01:30:46;69454.71;;;20.99;95.59
46127;BME280;31859;55.030;-1.550;2022-10-18T01:33:21;69454.71;;;20.99;95.59
46127;BME280;31859;55.030;-1.550;2022-10-18T01:35:55;69454.71;;;20.99;95.59
46127;BME280;31859;55.030;-1.550;2022-10-18T01:38:25;69454.71;;;20.99;95.59
46127;BME280;31859;55.030;-1.550;2022-10-18T01:40:55;69454.71;;;20.99;95.59
46127;BME280;31859;55.030;-1.550;2022-10-18T01:43:24;69454.71;;;20.99;95.59
46127;BME280;31859;55.030;-1.550;2022-10-18T01:45:53;69454.71;;;20.99;95.59
46127;BME280;31859;55.030;-1.550;2022-10-18T01:48:21;69454.71;;;20.77;95.59
46127;BME280;31859;55.030;-1.550;2022-10-18T01:50:48;69454.71;;;20.77;95.59
46127;BME280;31859;55.030;-1.550;2022-10-18T01:53:26;69454.71;;;20.77;95.59
46127;BME280;31859;55.030;-1.550;2022-10-18T01:56:04;69454.71;;;20.77;95.59
46127;BME280;31859;55.030;-1.550;2022-10-18T01:58:39;69454.71;;;20.99;95.59
46127;BME280;31859;55.030;-1.550;2022-10-18T02:01:13;69454.71;;;20.99;95.59
46127;BME280;31859;55.030;-1.550;2022-10-18T02:03:45;69454.71;;;20.99;95.59
46127;BME280;31859;55.030;-1.550;2022-10-18T02:06:18;69454.71;;;20.99;95.59
46127;BME280;31859;55.030;-1.550;2022-10-18T02:08:50;69454.71;;;20.99;95.59
46127;BME280;31859;55.030;-1.550;2022-10-18T02:11:21;69454.71;;;20.99;95.59
46127;BME280;31859;55.030;-1.550;2022-10-18T02:13:52;69454.71;;;20.77;95.59
46127;BME280;31859;55.030;-1.550;2022-10-18T02:16:24;69454.71;;;20.99;95.59
46127;BME280;31859;55.030;-1.550;2022-10-18T02:18:58;69454.71;;;20.99;95.59
46127;BME280;31859;55.030;-1.550;2022-10-18T02:21:28;69454.71;;;20.99;95.59
46127;BME280;31859;55.030;-1.550;2022-10-18T02:23:57;69454.71;;;20.99;95.59
46127;BME280;31859;55.030;-1.550;2022-10-18T02:26:26;69454.71;;;21.26;95.59
46127;BME280;31859;55.030;-1.550;2022-10-18T02:28:54;69454.71;;;21.26;95.59
46127;BME280;31859;55.030;-1.550;2022-10-18T02:31:26;69454.71;;;21.48;95.59
46127;BME280;31859;55.030;-1.550;2022-10-18T02:33:57;69454.71;;;21.26;95.59
46127;BME280;31859;55.030;-1.550;2022-10-18T02:36:30;69454.71;;;21.48;95.59
46127;BME280;31859;55.030;-1.550;2022-10-18T02:39:02;69454.71;;;21.26;95.59
46127;BME280;31859;55.030;-1.550;2022-10-18T02:41:30;69454.71;;;21.48;95.59
46127;BME280;31859;55.030;-1.550;2022-10-18T02:43:58;69454.71;;;21.48;95.59
46127;BME280;31859;55.030;-1.550;2022-10-18T02:46:26;69454.71;;;21.26;95.59
46127;BME280;31859;55.030;-1.550;2022-10-18T02:48:53;69454.71;;;21.26;95.59
46127;BME280;31859;55.030;-1.550;2022-10-18T02:51:20;69454.71;;;20.99;95.59
46127;BME280;31859;55.030;-1.550;2022-10-18T02:53:47;69454.71;;;20.77;95.59
46127;BME280;31859;55.030;-1.550;2022-10-18T02:56:14;69454.71;;;20.99;95.59
46127;BME280;31859;55.030;-1.550;2022-10-18T02:58:41;69454.71;;;21.26;95.59
46127;BME280;31859;55.030;-1.550;2022-10-18T03:01:08;69454.71;;;21.48;95.59
46127;BME280;31859;55.030;-1.550;2022-10-18T03:03:36;69454.71;;;20.99;95.59
46127;BME280;31859;55.030;-1.550;2022-10-18T03:06:03;69454.71;;;20.99;95.59
46127;BME280;31859;55.030;-1.550;2022-10-18T03:08:30;69454.71;;;21.26;95.59
46127;BME280;31859;55.030;-1.550;2022-10-18T03:10:57;69454.71;;;21.48;95.59
46127;BME280;31859;55.030;-1.550;2022-10-18T03:13:24;69454.71;;;21.48;95.59
46127;BME280;31859;55.030;-1.550;2022-10-18T03:15:51;69454.71;;;21.97;95.59
46127;BME280;31859;55.030;-1.550;2022-10-18T03:18:19;69454.71;;;21.70;95.59
46127;BME280;31859;55.030;-1.550;2022-10-18T03:20:46;69454.71;;;21.48;95.59
46127;BME280;31859;55.030;-1.550;2022-10-18T03:23:13;69454.71;;;21.26;95.59
46127;BME280;31859;55.030;-1.550;2022-10-18T03:25:40;69454.71;;;20.99;95.59
46127;BME280;31859;55.030;-1.550;2022-10-18T03:28:07;69454.71;;;20.99;95.59
46127;BME280;31859;55.030;-1.550;2022-10-18T03:30:35;69454.71;;;20.99;95.59
46127;BME280;31859;55.030;-1.550;2022-10-18T03:33:02;69454.71;;;20.99;95.59
46127;BME280;31859;55.030;-1.550;2022-10-18T03:35:29;69454.71;;;20.99;95.59
46127;BME280;31859;55.030;-1.550;2022-10-18T03:37:56;69454.71;;;20.99;95.59
46127;BME280;31859;55.030;-1.550;2022-10-18T03:40:23;69454.71;;;21.48;95.59
46127;BME280;31859;55.030;-1.550;2022-10-18T03:42:50;69454.71;;;21.48;95.59
46127;BME280;31859;55.030;-1.550;2022-10-18T03:45:18;69454.71;;;21.26;95.59
46127;BME280;31859;55.030;-1.550;2022-10-18T03:47:45;69454.71;;;20.99;95.59
46127;BME280;31859;55.030;-1.550;2022-10-18T03:50:13;69454.71;;;20.99;95.59
46127;BME280;31859;55.030;-1.550;2022-10-18T03:52:39;69454.71;;;21.26;95.59
46127;BME280;31859;55.030;-1.550;2022-10-18T03:55:07;69454.71;;;20.99;95.59
46127;BME280;31859;55.030;-1.550;2022-10-18T03:57:34;69454.71;;;20.99;95.59
46127;BME280;31859;55.030;-1.550;2022-10-18T04:00:03;69454.71;;;21.26;95.59
46127;BME280;31859;55.030;-1.550;2022-10-18T04:02:30;69454.71;;;21.26;95.59
46127;BME280;31859;55.030;-1.550;2022-10-18T04:04:58;69454.71;;;21.48;95.59
46127;BME280;31859;55.030;-1.550;2022-10-18T04:07:25;69454.71;;;20.99;95.59
46127;BME280;31859;55.030;-1.550;2022-10-18T04:09:52;69454.71;;;21.26;95.59
46127;BME280;31859;55.030;-1.550;2022-10-18T04:12:19;69454.71;;;20.99;95.59
46127;BME280;31859;55.030;-1.550;2022-10-18T04:14:46;69454.71;;;20.99;95.59
46127;BME280;31859;55.030;-1.550;2022-10-18T04:17:14;69454.71;;;20.99;95.59
46127;BME280;31859;55.030;-1.550;2022-10-18T04:19:41;69454.71;;;20.99;95.59
46127;BME280;31859;55.030;-1.550;2022-10-18T04:22:08;69454.71;;;20.99;95.59
46127;BME280;31859;55.030;-1.550;2022-10-18T04:24:36;69454.71;;;20.99;95.59
46127;BME280;31859;55.030;-1.550;2022-10-18T04:27:04;69454.71;;;20.99;95.59
46127;BME280;31859;55.030;-1.550;2022-10-18T04:29:33;69454.71;;;20.99;95.59
46127;BME280;31859;55.030;-1.550;2022-10-18T04:32:00;69454.71;;;20.99;95.59
46127;BME280;31859;55.030;-1.550;2022-10-18T04:34:27;69454.71;;;20.99;95.59
46127;BME280;31859;55.030;-1.550;2022-10-18T04:36:54;69454.71;;;20.99;95.59
46127;BME280;31859;55.030;-1.550;2022-10-18T04:39:21;69454.71;;;20.99;95.59
46127;BME280;31859;55.030;-1.550;2022-10-18T04:41:48;69454.71;;;20.99;95.59
46127;BME280;31859;55.030;-1.550;2022-10-18T04:44:15;69454.71;;;20.99;95.59
46127;BME280;31859;55.030;-1.550;2022-10-18T04:46:42;69454.71;;;20.99;95.59
46127;BME280;31859;55.030;-1.550;2022-10-18T04:49:09;69454.71;;;20.99;95.59
46127;BME280;31859;55.030;-1.550;2022-10-18T04:51:36;69454.71;;;21.48;95.59
46127;BME280;31859;55.030;-1.550;2022-10-18T04:54:03;69454.71;;;21.48;95.59
46127;BME280;31859;55.030;-1.550;2022-10-18T04:56:30;69454.71;;;21.48;95.59
46127;BME280;31859;55.030;-1.550;2022-10-18T04:58:57;69454.71;;;21.97;95.59
46127;BME280;31859;55.030;-1.550;2022-10-18T05:01:24;69454.71;;;21.70;95.59
46127;BME280;31859;55.030;-1.550;2022-10-18T05:03:52;69454.71;;;21.48;95.59
46127;BME280;31859;55.030;-1.550;2022-10-18T05:06:21;69454.71;;;21.97;95.59
46127;BME280;31859;55.030;-1.550;2022-10-18T05:08:48;69454.71;;;21.97;95.59
46127;BME280;31859;55.030;-1.550;2022-10-18T05:11:16;69454.71;;;21.70;95.59
46127;BME280;31859;55.030;-1.550;2022-10-18T05:13:43;69454.71;;;21.48;95.59
46127;BME280;31859;55.030;-1.550;2022-10-18T05:16:10;69454.71;;;21.48;95.59
46127;BME280;31859;55.030;-1.550;2022-10-18T05:18:37;69454.71;;;21.48;95.59
46127;BME280;31859;55.030;-1.550;2022-10-18T05:21:04;69454.71;;;21.48;95.59
46127;BME280;31859;55.030;-1.550;2022-10-18T05:23:31;69454.71;;;21.97;95.59
46127;BME280;31859;55.030;-1.550;2022-10-18T05:26:03;69454.71;;;21.97;95.59
46127;BME280;31859;55.030;-1.550;2022-10-18T05:28:30;69454.71;;;21.70;95.59
46127;BME280;31859;55.030;-1.550;2022-10-18T05:31:00;69454.71;;;21.97;95.59
46127;BME280;31859;55.030;-1.550;2022-10-18T05:33:27;69454.71;;;21.97;95.59
46127;BME280;31859;55.030;-1.550;2022-10-18T05:35:55;69454.71;;;21.97;95.59
46127;BME280;31859;55.030;-1.550;2022-10-18T05:38:23;69454.71;;;21.97;95.59
46127;BME280;31859;55.030;-1.550;2022-10-18T05:40:50;69454.71;;;21.70;95.59
46127;BME280;31859;55.030;-1.550;2022-10-18T05:43:17;69454.71;;;21.70;95.59
46127;BME280;31859;55.030;-1.550;2022-10-18T05:45:48;69454.71;;;21.48;95.59
46127;BME280;31859;55.030;-1.550;2022-10-18T05:48:17;69454.71;;;20.99;95.59
46127;BME280;31859;55.030;-1.550;2022-10-18T05:50:45;69454.71;;;20.99;95.59
46127;BME280;31859;55.030;-1.550;2022-10-18T05:53:12;69454.71;;;20.99;95.59
46127;BME280;31859;55.030;-1.550;2022-10-18T05:55:44;69454.71;;;20.99;95.59
46127;BME280;31859;55.030;-1.550;2022-10-18T05:58:11;69454.71;;;20.99;95.59
46127;BME280;31859;55.030;-1.550;2022-10-18T06:00:39;69454.71;;;20.77;95.59
46127;BME280;31859;55.030;-1.550;2022-10-18T06:03:06;69454.71;;;20.55;95.59
46127;BME280;31859;55.030;-1.550;2022-10-18T06:05:33;69454.71;;;20.55;95.59
46127;BME280;31859;55.030;-1.550;2022-10-18T06:08:01;69454.71;;;20.55;95.59
46127;BME280;31859;55.030;-1.550;2022-10-18T06:10:28;69454.71;;;20.99;95.59
46127;BME280;31859;55.030;-1.550;2022-10-18T06:12:55;69454.71;;;20.99;95.59
46127;BME280;31859;55.030;-1.550;2022-10-18T06:15:23;69454.71;;;20.99;95.59
46127;BME280;31859;55.030;-1.550;2022-10-18T06:17:50;69454.71;;;20.77;95.59
46127;BME280;31859;55.030;-1.550;2022-10-18T06:20:17;69454.71;;;20.99;95.59
46127;BME280;31859;55.030;-1.550;2022-10-18T06:22:45;69454.71;;;20.99;95.59
46127;BME280;31859;55.030;-1.550;2022-10-18T06:25:12;69454.71;;;20.99;95.59
46127;BME280;31859;55.030;-1.550;2022-10-18T06:27:39;69454.71;;;20.55;95.59
46127;BME280;31859;55.030;-1.550;2022-10-18T06:30:07;69454.71;;;20.77;95.59
46127;BME280;31859;55.030;-1.550;2022-10-18T06:32:35;69454.71;;;20.77;95.59
46127;BME280;31859;55.030;-1.550;2022-10-18T06:35:02;69454.71;;;20.55;95.59
46127;BME280;31859;55.030;-1.550;2022-10-18T06:37:29;69454.71;;;20.99;95.59
46127;BME280;31859;55.030;-1.550;2022-10-18T06:39:56;69454.71;;;20.99;95.59
46127;BME280;31859;55.030;-1.550;2022-10-18T06:42:23;69454.71;;;21.48;95.59
46127;BME280;31859;55.030;-1.550;2022-10-18T06:44:50;69454.71;;;20.99;95.59
46127;BME280;31859;55.030;-1.550;2022-10-18T06:47:17;69454.71;;;20.99;95.59
46127;BME280;31859;55.030;-1.550;2022-10-18T06:49:44;69454.71;;;20.99;95.59
46127;BME280;31859;55.030;-1.550;2022-10-18T06:52:11;69454.71;;;20.77;95.59
46127;BME280;31859;55.030;-1.550;2022-10-18T06:54:38;69454.71;;;20.77;95.59
46127;BME280;31859;55.030;-1.550;2022-10-18T06:57:05;69454.71;;;20.77;95.59
46127;BME280;31859;55.030;-1.550;2022-10-18T06:59:32;69454.71;;;20.77;95.59
46127;BME280;31859;55.030;-1.550;2022-10-18T07:01:59;69454.71;;;20.77;95.59
46127;BME280;31859;55.030;-1.550;2022-10-18T07:04:27;69454.71;;;20.77;95.59
46127;BME280;31859;55.030;-1.550;2022-10-18T07:06:55;69454.71;;;20.99;95.59
46127;BME280;31859;55.030;-1.550;2022-10-18T07:09:22;69454.71;;;20.77;95.59
46127;BME280;31859;55.030;-1.550;2022-10-18T07:11:49;69454.71;;;20.55;95.59
46127;BME280;31859;55.030;-1.550;2022-10-18T07:14:21;69454.71;;;20.55;95.59
46127;BME280;31859;55.030;-1.550;2022-10-18T07:16:48;69454.71;;;20.55;95.59
46127;BME280;31859;55.030;-1.550;2022-10-18T07:19:15;69454.71;;;20.28;95.59
46127;BME280;31859;55.030;-1.550;2022-10-18T07:21:42;69454.71;;;20.55;95.59
46127;BME280;31859;55.030;-1.550;2022-10-18T07:24:09;69454.71;;;20.55;95.59
46127;BME280;31859;55.030;-1.550;2022-10-18T07:26:42;69454.71;;;20.28;95.59
46127;BME280;31859;55.030;-1.550;2022-10-18T07:29:10;69454.71;;;20.55;95.59
46127;BME280;31859;55.030;-1.550;2022-10-18T07:31:38;69454.71;;;20.55;95.59
46127;BME280;31859;55.030;-1.550;2022-10-18T07:34:10;69454.71;;;20.55;95.59
46127;BME280;31859;55.030;-1.550;2022-10-18T07:36:37;69454.71;;;20.77;95.59
46127;BME280;31859;55.030;-1.550;2022-10-18T07:39:05;69454.71;;;20.77;95.59
46127;BME280;31859;55.030;-1.550;2022-10-18T07:41:33;69454.71;;;20.55;95.59
46127;BME280;31859;55.030;-1.550;2022-10-18T07:44:01;69454.71;;;20.55;95.59
46127;BME280;31859;55.030;-1.550;2022-10-18T07:46:28;69454.71;;;20.55;95.59
46127;BME280;31859;55.030;-1.550;2022-10-18T07:48:56;69454.71;;;20.28;95.59
46127;BME280;31859;55.030;-1.550;2022-10-18T07:51:23;69454.71;;;20.06;95.59
46127;BME280;31859;55.030;-1.550;2022-10-18T07:53:50;69454.71;;;20.55;95.59
46127;BME280;31859;55.030;-1.550;2022-10-18T07:56:19;69454.71;;;20.28;95.59
46127;BME280;31859;55.030;-1.550;2022-10-18T07:58:47;69454.71;;;20.55;95.59
46127;BME280;31859;55.030;-1.550;2022-10-18T08:01:15;69454.71;;;20.06;95.59
46127;BME280;31859;55.030;-1.550;2022-10-18T08:03:42;69454.71;;;20.55;95.59
46127;BME280;31859;55.030;-1.550;2022-10-18T08:06:11;69454.71;;;20.06;95.59
46127;BME280;31859;55.030;-1.550;2022-10-18T08:08:39;69454.71;;;20.28;95.59
46127;BME280;31859;55.030;-1.550;2022-10-18T08:11:08;69454.71;;;20.06;95.59
46127;BME280;31859;55.030;-1.550;2022-10-18T08:13:36;69454.71;;;20.28;95.59
46127;BME280;31859;55.030;-1.550;2022-10-18T08:16:05;69454.71;;;20.28;95.59
46127;BME280;31859;55.030;-1.550;2022-10-18T08:18:33;69454.71;;;20.55;95.59
46127;BME280;31859;55.030;-1.550;2022-10-18T08:21:02;69454.71;;;20.55;95.59
46127;BME280;31859;55.030;-1.550;2022-10-18T08:23:29;69454.71;;;20.55;95.59
46127;BME280;31859;55.030;-1.550;2022-10-18T08:25:56;69454.71;;;20.06;95.59
46127;BME280;31859;55.030;-1.550;2022-10-18T08:28:26;69454.71;;;20.28;95.59
46127;BME280;31859;55.030;-1.550;2022-10-18T08:30:53;69454.71;;;20.06;95.59
46127;BME280;31859;55.030;-1.550;2022-10-18T08:33:20;69454.71;;;20.06;95.59
46127;BME280;31859;55.030;-1.550;2022-10-18T08:35:54;69454.71;;;20.55;95.59
46127;BME280;31859;55.030;-1.550;2022-10-18T08:38:21;69454.71;;;20.55;95.59
46127;BME280;31859;55.030;-1.550;2022-10-18T08:40:48;69454.71;;;20.55;95.59
46127;BME280;31859;55.030;-1.550;2022-10-18T08:43:23;69454.71;;;20.06;95.59
46127;BME280;31859;55.030;-1.550;2022-10-18T08:45:53;69454.71;;;20.55;95.59
46127;BME280;31859;55.030;-1.550;2022-10-18T08:48:28;69454.71;;;20.55;95.59
46127;BME280;31859;55.030;-1.550;2022-10-18T08:50:57;69454.71;;;20.77;95.59
46127;BME280;31859;55.030;-1.550;2022-10-18T08:53:29;69454.71;;;20.99;95.59
46127;BME280;31859;55.030;-1.550;2022-10-18T08:56:01;69454.71;;;20.55;95.59
46127;BME280;31859;55.030;-1.550;2022-10-18T08:58:31;69454.71;;;20.55;95.59
46127;BME280;31859;55.030;-1.550;2022-10-18T09:01:08;69454.71;;;20.55;95.59
46127;BME280;31859;55.030;-1.550;2022-10-18T09:03:53;69454.71;;;20.55;95.59
46127;BME280;31859;55.030;-1.550;2022-10-18T09:06:28;69454.71;;;20.55;95.59
46127;BME280;31859;55.030;-1.550;2022-10-18T09:09:07;69454.71;;;20.55;95.59
46127;BME280;31859;55.030;-1.550;2022-10-18T09:11:49;69454.71;;;20.77;95.59
46127;BME280;31859;55.030;-1.550;2022-10-18T09:14:48;69454.71;;;20.55;95.59
46127;BME280;31859;55.030;-1.550;2022-10-18T09:17:28;69454.71;;;20.06;95.59
46127;BME280;31859;55.030;-1.550;2022-10-18T09:20:06;69454.71;;;20.55;95.59
46127;BME280;31859;55.030;-1.550;2022-10-18T09:22:47;69454.71;;;20.28;95.59
46127;BME280;31859;55.030;-1.550;2022-10-18T09:25:18;69454.71;;;20.06;95.59
46127;BME280;31859;55.030;-1.550;2022-10-18T09:27:51;69454.71;;;20.55;95.59
46127;BME280;31859;55.030;-1.550;2022-10-18T09:30:34;69454.71;;;20.55;95.59
46127;BME280;31859;55.030;-1.550;2022-10-18T09:33:16;69454.71;;;20.06;95.59
46127;BME280;31859;55.030;-1.550;2022-10-18T09:35:50;69454.71;;;20.28;95.59
46127;BME280;31859;55.030;-1.550;2022-10-18T09:38:21;69454.71;;;20.28;95.59
46127;BME280;31859;55.030;-1.550;2022-10-18T09:40:53;69454.71;;;20.55;95.59
46127;BME280;31859;55.030;-1.550;2022-10-18T09:43:24;69454.71;;;20.06;95.59
46127;BME280;31859;55.030;-1.550;2022-10-18T09:45:54;69454.71;;;20.99;95.59
46127;BME280;31859;55.030;-1.550;2022-10-18T09:48:27;69454.71;;;20.28;95.59
46127;BME280;31859;55.030;-1.550;2022-10-18T09:50:57;69454.71;;;20.55;95.59
46127;BME280;31859;55.030;-1.550;2022-10-18T09:53:31;69454.71;;;20.55;95.59
46127;BME280;31859;55.030;-1.550;2022-10-18T09:56:02;69454.71;;;20.06;95.59
46127;BME280;31859;55.030;-1.550;2022-10-18T09:58:40;69454.71;;;19.57;95.59
46127;BME280;31859;55.030;-1.550;2022-10-18T10:01:08;69454.71;;;19.57;95.59
46127;BME280;31859;55.030;-1.550;2022-10-18T10:03:36;69454.71;;;19.57;95.59
46127;BME280;31859;55.030;-1.550;2022-10-18T10:06:16;69454.71;;;19.08;95.59
46127;BME280;31859;55.030;-1.550;2022-10-18T10:08:47;69454.71;;;19.08;95.59
46127;BME280;31859;55.030;-1.550;2022-10-18T10:11:31;69454.71;;;19.08;95.59
46127;BME280;31859;55.030;-1.550;2022-10-18T10:14:08;69454.71;;;18.64;95.59
46127;BME280;31859;55.030;-1.550;2022-10-18T10:16:46;69454.71;;;18.64;95.59
46127;BME280;31859;55.030;-1.550;2022-10-18T10:19:19;69454.71;;;18.37;95.59
46127;BME280;31859;55.030;-1.550;2022-10-18T10:21:49;69454.71;;;18.37;95.59
46127;BME280;31859;55.030;-1.550;2022-10-18T10:24:22;69454.71;;;18.15;95.59
46127;BME280;31859;55.030;-1.550;2022-10-18T10:26:57;69454.71;;;18.15;95.59
46127;BME280;31859;55.030;-1.550;2022-10-18T10:29:59;69454.71;;;17.88;95.59
46127;BME280;31859;55.030;-1.550;2022-10-18T10:32:30;69454.71;;;17.66;95.59
46127;BME280;31859;55.030;-1.550;2022-10-18T10:34:58;69454.71;;;17.66;95.59
46127;BME280;31859;55.030;-1.550;2022-10-18T10:37:29;69454.71;;;18.15;95.59
46127;BME280;31859;55.030;-1.550;2022-10-18T10:40:17;69454.71;;;18.37;95.59
46127;BME280;31859;55.030;-1.550;2022-10-18T10:42:53;69454.71;;;19.08;95.59
46127;BME280;31859;55.030;-1.550;2022-10-18T10:45:23;69454.71;;;18.64;95.59
46127;BME280;31859;55.030;-1.550;2022-10-18T10:47:52;69454.71;;;18.15;95.59
46127;BME280;31859;55.030;-1.550;2022-10-18T10:50:23;69454.71;;;17.88;95.59
46127;BME280;31859;55.030;-1.550;2022-10-18T10:52:51;69454.71;;;17.66;95.59
46127;BME280;31859;55.030;-1.550;2022-10-18T10:55:23;69454.71;;;17.88;95.59
46127;BME280;31859;55.030;-1.550;2022-10-18T10:57:52;69454.71;;;17.44;95.59
46127;BME280;31859;55.030;-1.550;2022-10-18T11:00:38;69454.71;;;17.66;95.59
46127;BME280;31859;55.030;-1.550;2022-10-18T11:03:12;69454.71;;;17.66;95.59
46127;BME280;31859;55.030;-1.550;2022-10-18T11:05:45;69454.71;;;18.64;95.59
46127;BME280;31859;55.030;-1.550;2022-10-18T11:08:14;69454.71;;;18.86;95.59
46127;BME280;31859;55.030;-1.550;2022-10-18T11:10:51;69454.71;;;19.08;95.59
46127;BME280;31859;55.030;-1.550;2022-10-18T11:13:27;69454.71;;;19.35;95.59
46127;BME280;31859;55.030;-1.550;2022-10-18T11:16:02;69454.71;;;18.86;95.59
46127;BME280;31859;55.030;-1.550;2022-10-18T11:18:33;69454.71;;;18.64;95.59
46127;BME280;31859;55.030;-1.550;2022-10-18T11:21:03;69454.71;;;18.64;95.59
46127;BME280;31859;55.030;-1.550;2022-10-18T11:23:34;69454.71;;;18.37;95.59
46127;BME280;31859;55.030;-1.550;2022-10-18T11:26:18;69454.71;;;18.86;95.59
46127;BME280;31859;55.030;-1.550;2022-10-18T11:29:05;69454.71;;;19.57;95.59
46127;BME280;31859;55.030;-1.550;2022-10-18T11:31:43;69454.71;;;19.79;95.59
46127;BME280;31859;55.030;-1.550;2022-10-18T11:34:25;69454.71;;;19.35;95.59
46127;BME280;31859;55.030;-1.550;2022-10-18T11:37:01;69454.71;;;19.08;95.59
46127;BME280;31859;55.030;-1.550;2022-10-18T11:39:39;69454.71;;;18.64;95.59
46127;BME280;31859;55.030;-1.550;2022-10-18T11:42:15;69454.71;;;18.64;95.59
46127;BME280;31859;55.030;-1.550;2022-10-18T11:44:51;69454.71;;;19.08;95.59
46127;BME280;31859;55.030;-1.550;2022-10-18T11:47:24;69454.71;;;19.79;95.59
46127;BME280;31859;55.030;-1.550;2022-10-18T11:50:04;69454.71;;;19.79;95.59
46127;BME280;31859;55.030;-1.550;2022-10-18T11:52:40;69454.71;;;19.57;95.59
46127;BME280;31859;55.030;-1.550;2022-10-18T11:55:22;69454.71;;;19.57;95.59
46127;BME280;31859;55.030;-1.550;2022-10-18T11:57:58;69454.71;;;19.57;95.59
46127;BME280;31859;55.030;-1.550;2022-10-18T12:00:37;69454.71;;;19.35;95.59
46127;BME280;31859;55.030;-1.550;2022-10-18T12:03:52;69454.71;;;19.57;95.59
46127;BME280;31859;55.030;-1.550;2022-10-18T12:06:25;69454.71;;;19.57;95.59
46127;BME280;31859;55.030;-1.550;2022-10-18T12:08:57;69454.71;;;19.35;95.59
46127;BME280;31859;55.030;-1.550;2022-10-18T12:11:29;69454.71;;;19.08;95.59
46127;BME280;31859;55.030;-1.550;2022-10-18T12:13:59;69454.71;;;19.57;95.59
46127;BME280;31859;55.030;-1.550;2022-10-18T12:16:32;69454.71;;;19.57;95.59
46127;BME280;31859;55.030;-1.550;2022-10-18T12:19:03;69454.71;;;19.57;95.59
46127;BME280;31859;55.030;-1.550;2022-10-18T12:21:33;69454.71;;;19.57;95.59
46127;BME280;31859;55.030;-1.550;2022-10-18T12:24:03;69454.71;;;19.35;95.59
46127;BME280;31859;55.030;-1.550;2022-10-18T12:26:33;69454.71;;;19.08;95.59
46127;BME280;31859;55.030;-1.550;2022-10-18T12:29:09;69454.71;;;18.86;95.59
46127;BME280;31859;55.030;-1.550;2022-10-18T12:31:42;69454.71;;;19.08;95.59
46127;BME280;31859;55.030;-1.550;2022-10-18T12:34:32;69454.71;;;19.08;95.59
46127;BME280;31859;55.030;-1.550;2022-10-18T12:37:28;69454.71;;;19.57;95.59
46127;BME280;31859;55.030;-1.550;2022-10-18T12:40:00;69454.71;;;19.79;95.59
46127;BME280;31859;55.030;-1.550;2022-10-18T12:42:30;69454.71;;;19.57;95.59
46127;BME280;31859;55.030;-1.550;2022-10-18T12:45:01;69454.71;;;19.79;95.59
46127;BME280;31859;55.030;-1.550;2022-10-18T12:47:29;69454.71;;;19.57;95.59
46127;BME280;31859;55.030;-1.550;2022-10-18T12:49:58;69454.71;;;19.79;95.59
46127;BME280;31859;55.030;-1.550;2022-10-18T12:52:27;69454.71;;;19.08;95.59
46127;BME280;31859;55.030;-1.550;2022-10-18T12:55:28;69454.71;;;19.35;95.59
46127;BME280;31859;55.030;-1.550;2022-10-18T12:58:29;69454.71;;;19.79;95.59
46127;BME280;31859;55.030;-1.550;2022-10-18T13:00:59;69454.71;;;19.57;95.59
46127;BME280;31859;55.030;-1.550;2022-10-18T13:03:39;69454.71;;;19.57;95.59
46127;BME280;31859;55.030;-1.550;2022-10-18T13:06:06;69454.71;;;19.57;95.59
46127;BME280;31859;55.030;-1.550;2022-10-18T13:08:37;69454.71;;;19.08;95.59
46127;BME280;31859;55.030;-1.550;2022-10-18T13:11:38;69454.71;;;19.79;95.59